Lynndyl, UT

10:47 AM MDT on May 28, 2015 (GMT -0600)
Oak City | | Change Station
CLOSE
Current Station
Personal Weather Station
Location: Oak City, UT
Elevation: 5066 ft
Nearby Weather Stations

Elev 5066 ft 39.38 °N, 112.34 °W | Updated 13 seconds ago

Clear
Clear
66.8 °F
Feels Like 66.8 °F
N
2.0
Wind Variable Wind from NNW
Gusts 4.0 mph

Today
High -- | Low -- °F
--% Chance of Precip.
Yesterday
High -- | Low -- °F
Precip. -- in
6:06 AM 8:47 PM
Waxing Gibbous, 77% visible
Pressure 30.12 in
Visibility 10.0 miles
Clouds Scattered Clouds 6500 ft
Dew Point 46 °F
Humidity 48%
Rainfall 0.00 in
Snow Depth Not available.
UV 3 out of 12
Pollen 3.60 out of 12
Air Quality Not available.
Flu Activity Sporadic
METAR KDPG 281455Z 12005KT 10SM SCT065 13/09 A3012 RMK DSNT RN E DSNT VIRGA W

More Conditions Fewer Conditions

Pressure 30.12 in
Visibility 10.0 miles
Clouds Scattered Clouds 6500 ft
Dew Point 46 °F
Humidity 48%
Rainfall 0.00 in
Snow Depth Not available.
UV 3 out of 12
Pollen 3.60 out of 12
Air Quality Not available.
Flu Activity Sporadic
METAR KDPG 281455Z 12005KT 10SM SCT065 13/09 A3012 RMK DSNT RN E DSNT VIRGA W

More Conditions Fewer Conditions

Nowcast | as of 10:31 am MDT on May 28, 2015

At 1030am...a line of showers and thunderstorms are moving southeast into the Uinta Basin and Book Cliffs. Through midday...expect showers and thunderstorms to also develop over the mountains...with a storm motion toward the southeast. The strongest activity will be capable of producing cloud to ground lightning...locally heavy rainfall...small hail and gusty winds.

×

10-Day Weather Forecast

Almanac

Astronomy

May. 28, 2015 Rise Set
Actual Time
Civil Twilight
Nautical Twilight
Astronomical Twilight
Moon
Length of Visible Light
Length of Day
Tomorrow will be .
, % of the Moon is Illuminated

Today's Extremes

State Highs State Lows

Community

WunderPhotos

Upload Photos

1,825,004 photos uploaded!

WunderBlogs® & News

Nearby

Air Quality

  Air Quality AQ Index Pollutant
Not available.

Snow Depth

Station Depth Elevation

Earthquake Activity

City Distance Mag. Time & Date
Minimum magnitude displayed is 2.5.

Coastal Water Temperatures

Place Temperature

Stations

Nearby Weather Stations

Station Location Temp. Windchill Dew Point Humidity Wind Precip. Elev Updated Type